Time;durP1;ratioP1;P1;durP2;ratioP2;P2;SDS_P1;SDS_P2;PMS_P1;PMS_P2;Temp;Humidity;BMP_temperature;BMP_pressure;BME280_temperature;BME280_humidity;BME280_pressure;Samples;Min_cycle;Max_cycle;Signal;HPM_P1;HPM_P2
2022/07/25 00:00:13;;;;;;;5.57;1.65;;;;;;;20.81;69.76;100448.84;5193542;28;20490;-74
2022/07/25 00:02:43;;;;;;;3.72;1.60;;;;;;;20.77;69.70;100445.63;5181312;28;20495;-74
2022/07/25 00:05:13;;;;;;;4.95;1.73;;;;;;;20.77;69.78;100440.31;5180091;28;20123;-74
2022/07/25 00:07:44;;;;;;;7.15;1.63;;;;;;;20.74;70.19;100434.38;5181840;28;20076;-75
2022/07/25 00:10:15;;;;;;;2.88;1.60;;;;;;;20.70;70.15;100440.91;5182157;28;20376;-74
2022/07/25 00:12:45;;;;;;;4.10;1.60;;;;;;;20.61;70.44;100430.16;5181224;28;20112;-75
2022/07/25 00:15:15;;;;;;;4.82;1.52;;;;;;;20.78;69.96;100422.53;5182119;28;20399;-74
2022/07/25 00:17:46;;;;;;;3.17;1.45;;;;;;;20.63;70.17;100418.44;5165212;28;20380;-74
2022/07/25 00:20:16;;;;;;;3.42;1.70;;;;;;;20.74;69.99;100415.78;5183379;28;20026;-74
2022/07/25 00:22:46;;;;;;;3.95;1.40;;;;;;;20.66;70.18;100412.88;5182831;28;20084;-74
2022/07/25 00:25:17;;;;;;;3.25;1.60;;;;;;;20.53;70.59;100408.66;5181675;28;20407;-74
2022/07/25 00:27:47;;;;;;;6.65;1.60;;;;;;;20.46;70.82;100404.81;5181212;28;20026;-74
2022/07/25 00:30:18;;;;;;;3.20;1.85;;;;;;;20.51;70.59;100405.28;5182052;28;20082;-74
2022/07/25 00:32:48;;;;;;;4.10;1.75;;;;;;;20.54;70.50;100400.59;5182803;28;20022;-74
2022/07/25 00:35:18;;;;;;;2.90;1.83;;;;;;;20.51;70.33;100402.63;5181633;28;20026;-74
2022/07/25 00:37:49;;;;;;;4.50;1.60;;;;;;;20.62;70.17;100398.16;5180847;28;20491;-74
2022/07/25 00:40:19;;;;;;;2.13;1.45;;;;;;;20.60;70.12;100400.09;5182222;28;20543;-75
2022/07/25 00:42:50;;;;;;;3.47;1.70;;;;;;;20.52;70.09;100397.22;5209232;22;20096;-74
2022/07/25 00:45:20;;;;;;;4.93;1.67;;;;;;;20.59;69.75;100406.38;5183468;28;20030;-74
2022/07/25 00:47:51;;;;;;;4.68;1.70;;;;;;;20.72;69.39;100401.78;5184044;28;20769;-73
2022/07/25 00:50:21;;;;;;;4.57;1.83;;;;;;;20.69;69.77;100402.03;5180951;28;20149;-74
2022/07/25 00:52:52;;;;;;;3.70;1.73;;;;;;;20.57;69.84;100395.03;5174319;28;20072;-73
2022/07/25 00:55:24;;;;;;;4.13;1.60;;;;;;;20.72;69.39;100396.47;5179594;28;20037;-74
2022/07/25 00:57:54;;;;;;;5.25;2.00;;;;;;;20.67;69.30;100386.19;5182550;28;20113;-74
2022/07/25 01:00:25;;;;;;;5.57;1.73;;;;;;;20.71;69.67;100389.47;5180881;28;20153;-74
2022/07/25 01:02:55;;;;;;;5.18;1.80;;;;;;;20.70;69.23;100387.78;5186245;28;20075;-74
2022/07/25 01:05:26;;;;;;;10.90;1.95;;;;;;;20.67;69.24;100377.38;5184686;28;20193;-74
2022/07/25 01:07:57;;;;;;;4.78;1.90;;;;;;;20.60;69.59;100377.97;5181536;28;20026;-74
2022/07/25 01:10:30;;;;;;;3.42;1.90;;;;;;;20.57;69.57;100384.41;5180295;28;20073;-74
2022/07/25 01:13:01;;;;;;;2.80;1.80;;;;;;;20.56;69.50;100382.72;5180837;28;20571;-74
2022/07/25 01:15:31;;;;;;;5.78;1.85;;;;;;;20.57;69.55;100373.78;5180907;28;20179;-74
2022/07/25 01:18:02;;;;;;;7.15;1.95;;;;;;;20.67;69.14;100372.06;5180607;28;20033;-74
2022/07/25 01:20:32;;;;;;;3.85;2.08;;;;;;;20.67;68.92;100372.91;5180430;28;20021;-74
2022/07/25 01:23:03;;;;;;;3.80;1.80;;;;;;;20.51;69.64;100368.09;5181467;28;20557;-74
2022/07/25 01:25:33;;;;;;;4.35;2.20;;;;;;;20.53;69.45;100364.38;5181109;28;20048;-74
2022/07/25 01:28:04;;;;;;;5.63;1.90;;;;;;;20.40;70.10;100371.63;5187276;28;20030;-74
2022/07/25 01:30:34;;;;;;;3.50;1.70;;;;;;;20.41;69.65;100362.69;5182479;28;20392;-74
2022/07/25 01:33:05;;;;;;;5.63;1.92;;;;;;;20.31;70.23;100364.38;5187227;28;20518;-74
2022/07/25 01:35:35;;;;;;;4.00;2.10;;;;;;;20.26;70.55;100361.22;5183078;28;20026;-74
2022/07/25 01:38:06;;;;;;;2.78;1.65;;;;;;;20.24;70.21;100357.84;5180734;28;20108;-71
2022/07/25 01:40:36;;;;;;;7.47;1.75;;;;;;;20.18;70.88;100357.50;5180003;28;20022;-74
2022/07/25 01:43:07;;;;;;;2.90;2.13;;;;;;;20.08;71.01;100357.38;5179767;28;20053;-73
2022/07/25 01:45:38;;;;;;;5.65;1.85;;;;;;;20.09;70.79;100348.44;5179961;28;20068;-74
2022/07/25 01:48:08;;;;;;;4.55;2.08;;;;;;;19.96;71.18;100342.34;5179038;28;20029;-74
2022/07/25 01:50:38;;;;;;;3.67;1.77;;;;;;;20.15;70.56;100342.63;5181556;28;20438;-74
2022/07/25 01:53:09;;;;;;;5.13;1.95;;;;;;;20.03;71.12;100348.94;5181425;28;20112;-74
2022/07/25 01:55:39;;;;;;;4.88;1.73;;;;;;;19.98;70.84;100345.72;5181095;28;20018;-74
2022/07/25 01:58:10;;;;;;;4.15;1.90;;;;;;;20.05;70.56;100341.69;5184989;28;20396;-74
2022/07/25 02:00:40;;;;;;;4.10;2.03;;;;;;;20.21;70.19;100334.22;5178900;28;20037;-73
2022/07/25 02:03:29;;;;;;;2.92;1.80;;;;;;;20.19;70.08;100338.81;5185586;28;20113;-73
2022/07/25 02:06:05;;;;;;;3.72;1.80;;;;;;;20.16;70.11;100333.72;5181707;28;20021;-74
2022/07/25 02:08:35;;;;;;;3.55;1.80;;;;;;;20.19;70.35;100332.63;5179153;28;20068;-74
2022/07/25 02:11:06;;;;;;;3.90;1.85;;;;;;;20.16;70.24;100328.41;5179003;28;20029;-74
2022/07/25 02:13:36;;;;;;;5.43;1.80;;;;;;;20.10;70.29;100328.06;5179535;28;20025;-74
2022/07/25 02:16:06;;;;;;;5.13;1.98;;;;;;;19.83;71.27;100327.50;5179064;28;20125;-74
2022/07/25 02:18:37;;;;;;;4.47;2.17;;;;;;;19.85;71.72;100318.50;5180412;28;20516;-74
2022/07/25 02:21:09;;;;;;;2.60;1.80;;;;;;;19.71;72.17;100324.00;5179951;28;20025;-74
2022/07/25 02:23:39;;;;;;;3.85;1.88;;;;;;;19.62;72.45;100316.75;5178960;28;20112;-74
2022/07/25 02:26:10;;;;;;;2.92;1.65;;;;;;;19.58;72.35;100309.16;5165010;28;20116;-73
2022/07/25 02:28:41;;;;;;;4.32;1.88;;;;;;;19.41;73.26;100315.72;5185476;28;20038;-74
2022/07/25 02:31:11;;;;;;;2.53;1.60;;;;;;;19.65;72.43;100316.50;5178986;28;20392;-73
2022/07/25 02:33:42;;;;;;;3.95;2.13;;;;;;;19.58;72.79;100306.50;5188299;28;20105;-74
2022/07/25 02:36:13;;;;;;;4.68;1.90;;;;;;;19.44;73.27;100304.06;5179025;28;20025;-73
2022/07/25 02:38:43;;;;;;;3.95;1.83;;;;;;;19.43;73.33;100311.16;5178600;28;20532;-74
2022/07/25 02:41:13;;;;;;;6.03;2.38;;;;;;;19.33;73.75;100310.19;5179056;28;20032;-74
2022/07/25 02:43:44;;;;;;;3.35;1.90;;;;;;;19.34;73.79;100303.91;5178809;28;20037;-74
2022/07/25 02:46:14;;;;;;;3.10;2.00;;;;;;;19.28;74.03;100293.75;5175749;28;20042;-74
2022/07/25 02:48:45;;;;;;;3.55;2.00;;;;;;;19.35;73.65;100297.66;5178383;28;20022;-73
2022/07/25 02:51:17;;;;;;;6.38;1.80;;;;;;;19.23;74.20;100292.41;5179018;28;20080;-74
2022/07/25 02:53:47;;;;;;;5.43;2.25;;;;;;;19.16;74.63;100281.47;5179946;28;20028;-74
2022/07/25 02:56:18;;;;;;;7.93;2.42;;;;;;;19.03;74.63;100280.66;5181718;28;20475;-74
2022/07/25 02:58:48;;;;;;;4.03;2.05;;;;;;;19.02;75.10;100264.84;5185285;28;20408;-74
2022/07/25 03:01:18;;;;;;;4.38;2.00;;;;;;;19.02;75.21;100268.38;5179321;28;20127;-73
2022/07/25 03:03:49;;;;;;;3.83;1.90;;;;;;;18.85;75.75;100268.78;5186407;28;20556;-74
2022/07/25 03:06:19;;;;;;;8.27;2.15;;;;;;;19.08;74.73;100264.41;5179769;28;20025;-73
2022/07/25 03:08:49;;;;;;;7.72;1.90;;;;;;;18.94;75.21;100262.78;5179341;28;20057;-74
2022/07/25 03:11:20;;;;;;;4.47;2.08;;;;;;;19.09;75.11;100263.44;5178351;28;20384;-74
2022/07/25 03:13:50;;;;;;;6.00;2.00;;;;;;;19.09;74.92;100258.97;5178337;28;20025;-73
2022/07/25 03:16:21;;;;;;;4.97;2.08;;;;;;;19.14;74.52;100259.47;5177970;28;20120;-74
2022/07/25 03:18:52;;;;;;;3.95;1.83;;;;;;;19.15;74.53;100260.31;5177356;28;20450;-73
2022/07/25 03:21:22;;;;;;;3.55;1.80;;;;;;;19.23;74.00;100256.16;5179759;28;20080;-73
2022/07/25 03:23:53;;;;;;;4.18;1.92;;;;;;;19.28;73.45;100263.78;5178787;28;20211;-73
2022/07/25 03:26:23;;;;;;;5.65;2.00;;;;;;;19.26;73.84;100253.28;5181125;28;20022;-74
2022/07/25 03:28:53;;;;;;;3.25;1.95;;;;;;;19.27;73.86;100252.31;5184030;28;20073;-74
2022/07/25 03:31:24;;;;;;;3.95;1.73;;;;;;;19.38;73.48;100249.72;5178618;28;20032;-74
2022/07/25 03:33:54;;;;;;;4.10;2.15;;;;;;;19.36;73.53;100248.13;5186781;28;20494;-73
2022/07/25 03:36:24;;;;;;;5.82;2.10;;;;;;;19.34;73.84;100245.59;5178358;28;20069;-74
2022/07/25 03:38:56;;;;;;;4.50;2.08;;;;;;;19.33;73.84;100241.28;5178043;28;20036;-71
2022/07/25 03:41:26;;;;;;;4.82;2.00;;;;;;;19.44;73.16;100243.91;5177952;28;20057;-74
2022/07/25 03:43:57;;;;;;;5.53;2.00;;;;;;;19.50;73.09;100227.56;5178028;28;20060;-73
2022/07/25 03:46:27;;;;;;;3.28;1.83;;;;;;;19.42;73.55;100231.78;5179557;28;20034;-71
2022/07/25 03:48:57;;;;;;;2.90;1.90;;;;;;;19.50;73.03;100221.41;5178477;28;20113;-74
2022/07/25 03:51:28;;;;;;;4.20;2.42;;;;;;;19.42;73.72;100218.50;5178071;28;20080;-74
2022/07/25 03:54:01;;;;;;;4.60;2.08;;;;;;;19.36;73.93;100222.47;5179524;28;20035;-74
2022/07/25 03:56:37;;;;;;;4.32;1.80;;;;;;;19.27;74.19;100219.69;5180645;28;20487;-73
2022/07/25 03:59:08;;;;;;;4.30;2.05;;;;;;;19.34;74.06;100220.91;5182299;28;20054;-74
2022/07/25 04:01:40;;;;;;;4.55;1.98;;;;;;;19.38;73.95;100217.91;5147984;28;20040;-74
2022/07/25 04:04:11;;;;;;;3.47;1.95;;;;;;;19.47;73.58;100219.81;5183466;28;20447;-73
2022/07/25 04:06:41;;;;;;;4.03;2.20;;;;;;;19.49;73.83;100219.72;5160714;28;20034;-73
2022/07/25 04:09:12;;;;;;;3.45;2.10;;;;;;;19.55;73.57;100219.22;5177721;28;20030;-74
2022/07/25 04:11:42;;;;;;;6.30;1.90;;;;;;;19.58;73.41;100198.63;5178155;28;20550;-73
2022/07/25 04:14:13;;;;;;;6.13;1.92;;;;;;;19.58;73.48;100203.94;5179504;28;20017;-74
2022/07/25 04:16:43;;;;;;;4.20;2.10;;;;;;;19.60;74.10;100201.19;5177658;28;20030;-73
2022/07/25 04:19:14;;;;;;;5.47;2.15;;;;;;;19.73;73.45;100202.72;5179108;28;20048;-73
2022/07/25 04:21:44;;;;;;;4.55;2.00;;;;;;;19.84;73.12;100199.22;5175988;28;20044;-73
2022/07/25 04:24:15;;;;;;;3.05;1.80;;;;;;;19.96;72.77;100196.44;5181690;28;20079;-73
2022/07/25 04:26:45;;;;;;;3.88;2.25;;;;;;;19.99;72.87;100196.19;5186666;28;20124;-73
2022/07/25 04:29:15;;;;;;;5.70;2.30;;;;;;;20.11;72.08;100189.09;5184528;28;20076;-73
2022/07/25 04:31:46;;;;;;;4.60;1.70;;;;;;;20.34;71.97;100190.72;5184923;28;20055;-73
2022/07/25 04:34:16;;;;;;;3.97;1.80;;;;;;;20.39;71.88;100186.75;5187442;28;20021;-73
2022/07/25 04:36:47;;;;;;;7.72;2.20;;;;;;;20.53;71.09;100178.47;5181375;28;20479;-73
2022/07/25 04:39:17;;;;;;;3.58;2.05;;;;;;;20.58;71.31;100181.59;5181407;28;20057;-73
2022/07/25 04:41:47;;;;;;;3.55;1.70;;;;;;;21.31;69.44;100179.75;5181381;28;20034;-73
2022/07/25 04:44:18;;;;;;;5.80;2.00;;;;;;;21.86;67.88;100163.38;5182658;28;20026;-73
2022/07/25 04:46:48;;;;;;;3.17;1.90;;;;;;;23.18;64.95;100162.66;5180657;28;20076;-74
2022/07/25 04:49:19;;;;;;;3.22;1.95;;;;;;;24.70;60.46;100157.38;5180841;28;20025;-74
2022/07/25 04:51:49;;;;;;;4.05;1.95;;;;;;;25.09;59.33;100156.00;5179976;28;20033;-74
2022/07/25 04:54:19;;;;;;;6.47;1.67;;;;;;;25.33;58.84;100154.38;5180889;28;20372;-73
2022/07/25 04:56:50;;;;;;;4.78;2.15;;;;;;;26.46;56.59;100147.63;5185414;28;20112;-74
2022/07/25 04:59:20;;;;;;;2.83;1.70;;;;;;;26.77;56.11;100141.50;5167713;28;20033;-74
2022/07/25 05:01:50;;;;;;;2.92;1.55;;;;;;;27.20;54.91;100143.84;5183111;28;20569;-74
2022/07/25 05:04:21;;;;;;;2.95;1.70;;;;;;;27.60;54.74;100143.75;5186540;28;20472;-73
2022/07/25 05:06:51;;;;;;;4.40;1.60;;;;;;;27.35;54.95;100137.63;5180153;28;20450;-73
2022/07/25 05:09:22;;;;;;;2.97;1.70;;;;;;;28.20;53.47;100129.56;5180848;28;20036;-73
2022/07/25 05:11:52;;;;;;;2.83;1.50;;;;;;;28.63;52.52;100131.63;5180051;28;20057;-73
2022/07/25 05:14:23;;;;;;;3.35;1.70;;;;;;;28.71;52.56;100123.50;5181981;28;20029;-73
2022/07/25 05:16:53;;;;;;;4.68;1.63;;;;;;;28.58;52.46;100128.66;5181566;28;20040;-73
2022/07/25 05:19:23;;;;;;;2.25;1.50;;;;;;;29.57;51.08;100116.66;5164392;28;20030;-73
2022/07/25 05:21:54;;;;;;;2.17;1.60;;;;;;;28.98;51.62;100125.66;5180871;28;20188;-73
2022/07/25 05:24:24;;;;;;;3.65;1.63;;;;;;;30.21;49.83;100115.81;5163844;28;20472;-73
2022/07/25 05:26:54;;;;;;;5.47;2.08;;;;;;;30.90;49.30;100113.22;5185104;28;20029;-73
2022/07/25 05:29:26;;;;;;;1.95;1.52;;;;;;;31.06;48.78;100116.44;5185480;28;20093;-74
2022/07/25 05:31:57;;;;;;;2.80;1.55;;;;;;;30.82;49.04;100110.66;5183576;28;20108;-73
2022/07/25 05:34:27;;;;;;;3.20;1.88;;;;;;;31.22;48.81;100118.88;5178823;28;20032;-71
2022/07/25 05:36:57;;;;;;;3.38;1.70;;;;;;;31.55;47.99;100113.69;5179814;28;20030;-74
2022/07/25 05:39:28;;;;;;;3.50;1.70;;;;;;;30.29;50.36;100110.31;5179627;28;20032;-73
2022/07/25 05:41:58;;;;;;;4.07;1.75;;;;;;;30.86;49.61;100103.84;5181741;28;20108;-74
2022/07/25 05:44:28;;;;;;;3.22;1.63;;;;;;;31.71;47.59;100100.69;5181315;28;20424;-73
2022/07/25 05:46:59;;;;;;;4.45;1.63;;;;;;;32.26;47.03;100092.41;5179644;28;20184;-74
2022/07/25 05:49:29;;;;;;;2.97;1.58;;;;;;;31.50;47.87;100103.47;5162986;28;20041;-74
2022/07/25 05:52:00;;;;;;;4.63;1.90;;;;;;;31.89;47.84;100090.16;5180581;28;20034;-73
2022/07/25 05:54:30;;;;;;;4.38;1.63;;;;;;;31.86;47.87;100085.16;5179844;28;20033;-74
2022/07/25 05:57:01;;;;;;;3.47;1.52;;;;;;;30.08;50.15;100094.09;5185547;28;20025;-73
2022/07/25 05:59:31;;;;;;;4.70;1.77;;;;;;;30.99;49.47;100080.47;5182937;28;20116;-74
2022/07/25 06:02:02;;;;;;;3.65;1.60;;;;;;;30.17;51.06;100083.00;5180374;28;20033;-74
2022/07/25 06:04:33;;;;;;;6.18;2.08;;;;;;;31.08;49.52;100071.19;5184342;28;20527;-74
2022/07/25 06:07:03;;;;;;;3.85;1.60;;;;;;;31.00;49.40;100082.13;5177948;28;20407;-73
2022/07/25 06:09:33;;;;;;;2.30;1.60;;;;;;;31.24;49.00;100073.63;5179211;28;20026;-73
2022/07/25 06:12:04;;;;;;;2.40;1.63;;;;;;;30.53;49.60;100072.13;5180827;28;20022;-74
2022/07/25 06:14:35;;;;;;;4.32;1.70;;;;;;;29.80;50.76;100074.25;5180894;28;20025;-73
2022/07/25 06:17:05;;;;;;;2.95;1.60;;;;;;;29.45;51.71;100064.22;5180889;28;20049;-73
2022/07/25 06:19:35;;;;;;;4.43;2.00;;;;;;;29.17;52.44;100063.19;5180953;28;20029;-74
2022/07/25 06:22:08;;;;;;;5.32;1.95;;;;;;;29.08;52.84;100061.63;5180671;28;20349;-73
2022/07/25 06:24:38;;;;;;;5.55;1.90;;;;;;;29.03;52.63;100064.03;5180653;28;20018;-73
2022/07/25 06:27:08;;;;;;;5.97;1.92;;;;;;;28.77;53.38;100063.59;5184880;28;20024;-72
2022/07/25 06:29:39;;;;;;;3.33;1.95;;;;;;;29.41;52.70;100057.53;5183943;28;20014;-74
2022/07/25 06:32:09;;;;;;;6.20;2.13;;;;;;;28.85;53.29;100050.88;5181820;28;20304;-74
2022/07/25 06:34:40;;;;;;;3.13;1.88;;;;;;;29.23;52.74;100059.78;5185014;28;20017;-74
2022/07/25 06:37:10;;;;;;;3.55;1.98;;;;;;;29.52;52.56;100055.25;5177174;28;20022;-74
2022/07/25 06:39:40;;;;;;;3.40;1.75;;;;;;;29.76;52.57;100052.22;5178567;28;20221;-74
2022/07/25 06:42:11;;;;;;;2.70;1.80;;;;;;;29.70;52.10;100055.66;5203882;23;20758;-76
2022/07/25 06:44:41;;;;;;;3.53;1.90;;;;;;;29.80;51.90;100047.28;5212302;28;20030;-74
2022/07/25 06:47:11;;;;;;;3.17;2.10;;;;;;;29.68;51.79;100046.09;5198066;28;20031;-74
2022/07/25 06:49:42;;;;;;;4.28;1.95;;;;;;;29.73;52.66;100043.69;5197769;28;20122;-74
2022/07/25 06:52:12;;;;;;;3.08;1.90;;;;;;;30.48;51.13;100044.91;5232580;28;20546;-74
2022/07/25 06:54:43;;;;;;;7.55;2.30;;;;;;;30.42;51.41;100034.91;5200103;28;20021;-71
2022/07/25 06:57:13;;;;;;;5.45;2.00;;;;;;;31.35;49.92;100032.50;5197840;28;20029;-75
2022/07/25 06:59:44;;;;;;;4.25;2.08;;;;;;;30.93;51.10;100032.66;5200138;28;20025;-75
2022/07/25 07:02:15;;;;;;;5.00;2.08;;;;;;;31.52;50.16;100033.03;5198153;28;20266;-74
2022/07/25 07:04:45;;;;;;;3.90;2.30;;;;;;;31.63;49.75;100030.56;5198139;28;20049;-74
2022/07/25 07:07:16;;;;;;;7.13;2.13;;;;;;;32.00;49.21;100019.28;5196690;28;20108;-75
2022/07/25 07:09:46;;;;;;;4.13;2.25;;;;;;;32.49;48.09;100014.38;5180930;28;20021;-74
2022/07/25 07:12:16;;;;;;;5.57;2.20;;;;;;;32.62;48.14;100011.66;5197820;28;20025;-74
2022/07/25 07:14:47;;;;;;;7.22;2.40;;;;;;;33.77;46.32;100008.91;5200358;28;20033;-74
2022/07/25 07:17:17;;;;;;;6.38;2.25;;;;;;;33.26;47.37;100010.75;5198765;28;20053;-74
2022/07/25 07:19:47;;;;;;;4.73;1.90;;;;;;;33.91;46.70;100005.09;5198304;28;20184;-74
2022/07/25 07:22:18;;;;;;;4.63;2.05;;;;;;;33.29;48.54;100006.81;5199114;28;20625;-74
2022/07/25 07:24:49;;;;;;;3.75;2.03;;;;;;;33.44;47.50;100001.94;5198737;28;20041;-74
2022/07/25 07:27:22;;;;;;;3.95;2.22;;;;;;;33.73;47.40;100004.13;5200001;28;20025;-75
2022/07/25 07:29:52;;;;;;;4.15;1.88;;;;;;;34.51;46.59;99995.50;5199578;28;20483;-75
2022/07/25 07:32:23;;;;;;;3.47;2.00;;;;;;;35.58;44.88;99995.63;5197922;28;20025;-75
2022/07/25 07:34:53;;;;;;;3.03;2.07;;;;;;;36.32;43.88;99989.78;5197112;28;20172;-74
2022/07/25 07:37:23;;;;;;;2.87;2.23;;;;;;;35.63;45.55;99982.19;5197316;28;20268;-75
2022/07/25 07:39:54;;;;;;;4.97;2.17;;;;;;;35.33;45.16;99977.75;5198242;28;20300;-75
2022/07/25 07:42:24;;;;;;;4.35;2.40;;;;;;;34.96;46.13;99976.06;5197975;28;20021;-75
2022/07/25 07:44:54;;;;;;;4.75;2.28;;;;;;;34.53;46.96;99982.50;5199324;28;20025;-75
2022/07/25 07:47:25;;;;;;;4.70;2.10;;;;;;;36.82;43.38;99966.50;5197667;28;20040;-75
2022/07/25 07:49:56;;;;;;;3.97;2.55;;;;;;;36.33;42.88;99969.66;5198746;28;20276;-75
2022/07/25 07:52:26;;;;;;;4.15;2.65;;;;;;;36.63;43.05;99962.25;5198775;28;20643;-74
2022/07/25 07:57:46;;;;;;;6.88;2.50;;;;;;;35.98;43.66;99966.00;5201985;28;20346;-75
2022/07/25 08:00:17;;;;;;;4.55;2.50;;;;;;;36.64;43.45;99964.72;5203836;28;20265;-75
2022/07/25 08:02:52;;;;;;;2.95;2.50;;;;;;;37.68;42.52;99963.50;5202182;28;20037;-75
2022/07/25 08:05:27;;;;;;;6.72;2.72;;;;;;;36.45;44.09;99970.50;5203718;28;20083;-75
2022/07/25 08:07:59;;;;;;;7.00;2.92;;;;;;;37.07;43.68;99957.03;5202136;28;20487;-74
2022/07/25 08:10:31;;;;;;;6.28;2.70;;;;;;;37.01;43.55;99943.53;5203624;28;20025;-75
2022/07/25 08:13:15;;;;;;;4.18;2.50;;;;;;;37.60;43.19;99946.69;5202116;28;20038;-75
2022/07/25 08:15:47;;;;;;;5.38;2.45;;;;;;;37.41;42.59;99939.75;5198506;28;20036;-74
2022/07/25 08:18:18;;;;;;;4.80;2.50;;;;;;;38.22;41.60;99937.47;5201719;28;20072;-75
2022/07/25 08:20:49;;;;;;;7.43;2.72;;;;;;;38.06;41.90;99928.19;5202219;28;20029;-75
2022/07/25 08:23:21;;;;;;;3.97;2.47;;;;;;;38.06;43.11;99930.13;5201791;28;20029;-75
2022/07/25 08:25:51;;;;;;;4.07;2.58;;;;;;;40.09;40.35;99914.84;5201950;28;20025;-75
2022/07/25 08:28:21;;;;;;;4.82;2.65;;;;;;;39.78;40.41;99912.03;5200756;28;20556;-75
2022/07/25 08:30:53;;;;;;;4.05;2.60;;;;;;;38.19;41.15;99916.94;5201956;28;20027;-75
2022/07/25 08:33:24;;;;;;;5.50;2.92;;;;;;;40.17;39.10;99910.78;5202713;28;20036;-74
2022/07/25 08:35:55;;;;;;;3.50;2.65;;;;;;;39.58;40.36;99907.19;5203599;28;20037;-75
2022/07/25 08:38:26;;;;;;;3.85;2.75;;;;;;;38.04;41.45;99907.66;5184768;28;20041;-75
2022/07/25 08:40:58;;;;;;;4.25;2.60;;;;;;;39.06;41.03;99912.53;5202911;28;20141;-75
2022/07/25 08:43:31;;;;;;;4.65;2.80;;;;;;;40.14;39.68;99903.09;5185150;28;20612;-74
2022/07/25 08:46:04;;;;;;;6.32;2.60;;;;;;;41.15;39.15;99889.78;5201994;28;20029;-75
2022/07/25 08:48:35;;;;;;;6.13;2.78;;;;;;;41.18;39.41;99894.72;5201296;28;20116;-75
2022/07/25 08:51:06;;;;;;;3.50;2.50;;;;;;;41.42;38.06;99901.41;5201574;28;20518;-75
2022/07/25 08:53:36;;;;;;;3.95;2.80;;;;;;;41.52;38.40;99893.19;5203239;28;20076;-75
2022/07/25 08:56:07;;;;;;;5.03;3.17;;;;;;;41.16;38.70;99896.91;5201388;28;20334;-74
2022/07/25 08:58:40;;;;;;;5.72;3.00;;;;;;;41.18;37.97;99894.72;5200856;28;20075;-75
2022/07/25 09:01:11;;;;;;;4.35;2.97;;;;;;;40.51;38.85;99902.03;5201349;28;20033;-74
2022/07/25 09:03:42;;;;;;;5.40;2.75;;;;;;;41.20;39.19;99900.75;5200940;28;20376;-75
2022/07/25 09:06:21;;;;;;;5.15;3.20;;;;;;;40.72;38.39;99892.00;5201449;28;20512;-74
2022/07/25 09:08:52;;;;;;;3.90;2.90;;;;;;;41.56;38.19;99888.81;5199579;28;20029;-74
2022/07/25 09:11:32;;;;;;;5.88;3.15;;;;;;;41.42;37.60;99890.41;5201204;28;20025;-74
2022/07/25 09:14:10;;;;;;;5.72;2.95;;;;;;;40.74;38.93;99890.63;5202569;28;20056;-75
2022/07/25 09:16:43;;;;;;;6.65;3.42;;;;;;;40.02;38.96;99878.56;5200962;28;20112;-74
2022/07/25 09:19:15;;;;;;;5.65;3.20;;;;;;;40.33;38.69;99871.44;5201383;28;20100;-74
2022/07/25 09:22:01;;;;;;;7.25;3.15;;;;;;;38.56;41.05;99877.09;5197137;28;20029;-74
2022/07/25 09:24:32;;;;;;;4.07;3.00;;;;;;;37.48;41.65;99875.81;5200918;28;20036;-74
2022/07/25 09:27:09;;;;;;;6.57;3.40;;;;;;;38.83;42.07;99877.22;5200547;28;20375;-74
2022/07/25 09:29:44;;;;;;;5.97;3.42;;;;;;;38.84;40.94;99867.94;5200688;28;20121;-74
2022/07/25 09:32:16;;;;;;;;;;;;;;;38.64;42.20;99865.72;5198766;28;20021;-74
2022/07/25 09:34:48;;;;;;;5.95;3.55;;;;;;;39.20;40.94;99859.13;5201240;28;20395;-71
2022/07/25 09:37:25;;;;;;;5.55;3.22;;;;;;;39.00;41.45;99854.22;5201981;28;20033;-75
2022/07/25 09:39:55;;;;;;;6.32;3.20;;;;;;;39.58;40.85;99857.91;5200773;28;20061;-75
2022/07/25 09:42:28;;;;;;;5.72;3.40;;;;;;;39.53;41.31;99848.81;5199788;28;20080;-74
2022/07/25 09:45:11;;;;;;;5.35;3.55;;;;;;;39.33;41.97;99851.34;5201577;28;20152;-75
2022/07/25 09:47:52;;;;;;;5.90;3.17;;;;;;;39.33;41.26;99849.44;5200273;28;20394;-75
2022/07/25 09:50:24;;;;;;;5.90;3.50;;;;;;;40.33;40.57;99841.28;5197595;28;20032;-75
2022/07/25 09:52:59;;;;;;;6.35;3.33;;;;;;;40.27;40.16;99842.34;5200291;28;20071;-75
2022/07/25 09:55:31;;;;;;;7.50;3.78;;;;;;;40.18;40.46;99839.28;5201374;28;20021;-75
2022/07/25 09:58:01;;;;;;;4.72;3.40;;;;;;;39.96;40.44;99832.22;5199741;28;20059;-72
2022/07/25 10:00:32;;;;;;;6.45;3.45;;;;;;;38.28;41.89;99840.88;5199993;28;20025;-74
2022/07/25 10:03:15;;;;;;;6.97;3.53;;;;;;;39.17;41.31;99826.78;5183334;28;20034;-74
2022/07/25 10:05:55;;;;;;;9.43;3.90;;;;;;;38.62;42.06;99823.34;5201184;28;20044;-74
2022/07/25 10:08:26;;;;;;;5.22;3.47;;;;;;;39.56;42.10;99820.91;5199350;28;20071;-74
2022/07/25 10:10:57;;;;;;;4.93;3.50;;;;;;;39.60;41.35;99814.66;5201413;28;20116;-77
2022/07/25 10:13:33;;;;;;;9.30;3.53;;;;;;;40.15;41.84;99814.31;5199430;28;20127;-75
2022/07/25 10:16:23;;;;;;;12.23;3.47;;;;;;;39.68;40.50;99811.47;5200754;28;20045;-74
2022/07/25 10:18:58;;;;;;;7.80;3.60;;;;;;;38.70;41.80;99812.78;5195823;28;20445;-74
2022/07/25 10:21:28;;;;;;;;;;;;;;;38.20;41.73;99800.31;5200288;28;20075;-74
2022/07/25 10:24:00;;;;;;;10.00;3.90;;;;;;;37.69;43.00;99800.56;5183310;28;19925;-74
2022/07/25 10:26:31;;;;;;;6.70;4.00;;;;;;;36.97;43.59;99801.38;5198832;28;20115;-74
2022/07/25 10:29:07;;;;;;;4.88;3.95;;;;;;;36.40;45.30;99794.16;5199408;28;20071;-73
2022/07/25 10:31:44;;;;;;;10.65;4.00;;;;;;;36.29;45.27;99792.28;5195399;28;20539;-74
2022/07/25 10:34:15;;;;;;;7.30;4.30;;;;;;;35.57;45.80;99786.38;5195212;28;20128;-74
2022/07/25 10:36:50;;;;;;;7.43;4.03;;;;;;;35.69;45.08;99799.00;5197416;28;20324;-74
2022/07/25 10:39:22;;;;;;;5.18;3.88;;;;;;;35.67;46.29;99790.25;5193865;28;20447;-74
2022/07/25 10:41:59;;;;;;;9.32;4.50;;;;;;;35.58;45.67;99786.16;5196517;28;20492;-73
2022/07/25 10:44:41;;;;;;;5.25;3.80;;;;;;;35.54;46.08;99792.31;5193002;28;20083;-74
2022/07/25 10:47:13;;;;;;;5.30;3.80;;;;;;;35.53;47.55;99785.22;5198112;28;20120;-74
2022/07/25 10:49:47;;;;;;;5.65;3.90;;;;;;;35.23;47.02;99787.97;5197921;28;20020;-74
2022/07/25 10:52:19;;;;;;;6.18;3.92;;;;;;;35.60;47.58;99785.94;5194949;28;20172;-73
2022/07/25 10:54:55;;;;;;;5.97;3.75;;;;;;;35.12;46.27;99790.63;5198003;28;20479;-74
2022/07/25 10:57:27;;;;;;;5.70;4.10;;;;;;;35.16;47.23;99784.53;5197447;28;20102;-76
2022/07/25 11:00:07;;;;;;;7.28;4.22;;;;;;;35.07;47.42;99776.91;5195659;28;20029;-76
2022/07/25 11:02:38;;;;;;;9.50;4.32;;;;;;;35.17;46.75;99778.03;5199035;28;20033;-76
2022/07/25 11:05:09;;;;;;;7.00;3.80;;;;;;;35.15;46.27;99777.44;5199649;28;20614;-76
2022/07/25 11:07:51;;;;;;;7.38;3.90;;;;;;;34.84;46.71;99767.84;5196919;28;20191;-76
2022/07/25 11:10:26;;;;;;;7.65;3.97;;;;;;;34.82;47.72;99765.34;5196489;28;20025;-76
2022/07/25 11:12:57;;;;;;;7.88;4.28;;;;;;;35.04;46.80;99770.03;5197399;28;20053;-75
2022/07/25 11:15:28;;;;;;;4.50;3.92;;;;;;;35.10;47.74;99774.53;5197257;28;20491;-75
2022/07/25 11:17:58;;;;;;;9.80;4.13;;;;;;;34.93;47.47;99764.56;5198465;28;20521;-76
2022/07/25 11:20:28;;;;;;;7.63;3.80;;;;;;;34.99;47.11;99760.09;5197870;28;20475;-76
2022/07/25 11:22:59;;;;;;;6.18;3.85;;;;;;;35.13;47.42;99749.59;5197767;28;20037;-76
2022/07/25 11:25:29;;;;;;;7.93;4.00;;;;;;;35.31;47.09;99755.00;5198879;28;20044;-75
2022/07/25 11:28:02;;;;;;;6.13;3.67;;;;;;;35.35;48.54;99748.06;5196687;28;20410;-76
2022/07/25 11:30:32;;;;;;;5.72;4.13;;;;;;;35.30;47.13;99747.91;5198512;28;20041;-76
2022/07/25 11:33:02;;;;;;;5.72;4.00;;;;;;;35.28;47.62;99750.03;5202843;28;20464;-76
2022/07/25 11:35:33;;;;;;;10.05;4.38;;;;;;;35.45;47.22;99740.13;5200773;28;20033;-76
2022/07/25 11:38:03;;;;;;;6.53;3.75;;;;;;;35.39;47.47;99746.53;5202844;28;20154;-76
2022/07/25 11:40:42;;;;;;;4.88;3.65;;;;;;;35.59;46.88;99733.41;5202280;28;20163;-76
2022/07/25 11:43:20;;;;;;;5.15;3.50;;;;;;;35.41;46.52;99730.81;5201909;28;20122;-76
2022/07/25 11:45:58;;;;;;;5.97;3.72;;;;;;;35.57;46.46;99727.38;5197804;28;20034;-76
2022/07/25 11:48:37;;;;;;;5.32;3.90;;;;;;;35.35;47.37;99728.19;5202366;28;20083;-76
2022/07/25 11:51:15;;;;;;;6.13;3.70;;;;;;;35.39;46.99;99727.50;5201611;28;20025;-76